sensor_id;sensor_type;location;lat;lon;timestamp;temperature;humidity
2042;DHT22;1026;51.460;7.252;2022-09-20T00:00:43;12.70;87.10
2042;DHT22;1026;51.460;7.252;2022-09-20T00:03:10;12.80;87.20
2042;DHT22;1026;51.460;7.252;2022-09-20T00:05:39;12.70;87.10
2042;DHT22;1026;51.460;7.252;2022-09-20T00:08:06;12.70;87.10
2042;DHT22;1026;51.460;7.252;2022-09-20T00:10:34;12.70;87.10
2042;DHT22;1026;51.460;7.252;2022-09-20T00:13:02;12.70;87.10
2042;DHT22;1026;51.460;7.252;2022-09-20T00:15:29;12.70;87.10
2042;DHT22;1026;51.460;7.252;2022-09-20T00:17:55;12.70;87.10
2042;DHT22;1026;51.460;7.252;2022-09-20T00:20:21;12.70;87.10
2042;DHT22;1026;51.460;7.252;2022-09-20T00:22:46;12.70;87.10
2042;DHT22;1026;51.460;7.252;2022-09-20T00:25:15;12.50;86.90
2042;DHT22;1026;51.460;7.252;2022-09-20T00:27:41;12.60;87.00
2042;DHT22;1026;51.460;7.252;2022-09-20T00:30:07;12.60;87.00
2042;DHT22;1026;51.460;7.252;2022-09-20T00:32:33;12.60;87.00
2042;DHT22;1026;51.460;7.252;2022-09-20T00:34:59;12.60;87.00
2042;DHT22;1026;51.460;7.252;2022-09-20T00:37:41;12.60;87.00
2042;DHT22;1026;51.460;7.252;2022-09-20T00:40:11;12.60;87.10
2042;DHT22;1026;51.460;7.252;2022-09-20T00:42:37;12.60;87.10
2042;DHT22;1026;51.460;7.252;2022-09-20T00:45:05;12.60;87.00
2042;DHT22;1026;51.460;7.252;2022-09-20T00:47:49;12.60;87.00
2042;DHT22;1026;51.460;7.252;2022-09-20T00:52:44;12.60;87.10
2042;DHT22;1026;51.460;7.252;2022-09-20T00:55:12;12.50;87.00
2042;DHT22;1026;51.460;7.252;2022-09-20T00:57:40;12.50;87.00
2042;DHT22;1026;51.460;7.252;2022-09-20T01:00:09;12.50;87.10
2042;DHT22;1026;51.460;7.252;2022-09-20T01:02:41;12.50;87.00
2042;DHT22;1026;51.460;7.252;2022-09-20T01:05:08;12.50;87.00
2042;DHT22;1026;51.460;7.252;2022-09-20T01:07:35;12.50;87.00
2042;DHT22;1026;51.460;7.252;2022-09-20T01:10:01;12.50;87.00
2042;DHT22;1026;51.460;7.252;2022-09-20T01:12:29;12.50;86.90
2042;DHT22;1026;51.460;7.252;2022-09-20T01:14:58;12.50;87.00
2042;DHT22;1026;51.460;7.252;2022-09-20T01:17:26;12.50;87.00
2042;DHT22;1026;51.460;7.252;2022-09-20T01:22:39;12.50;86.90
2042;DHT22;1026;51.460;7.252;2022-09-20T01:27:45;12.50;87.00
2042;DHT22;1026;51.460;7.252;2022-09-20T01:30:15;12.40;86.90
2042;DHT22;1026;51.460;7.252;2022-09-20T01:35:40;12.40;86.90
2042;DHT22;1026;51.460;7.252;2022-09-20T01:38:26;12.30;86.80
2042;DHT22;1026;51.460;7.252;2022-09-20T01:48:46;12.40;87.00
2042;DHT22;1026;51.460;7.252;2022-09-20T01:51:33;12.40;86.90
2042;DHT22;1026;51.460;7.252;2022-09-20T02:11:03;12.30;86.90
2042;DHT22;1026;51.460;7.252;2022-09-20T02:27:26;12.30;86.90
2042;DHT22;1026;51.460;7.252;2022-09-20T02:43:21;12.20;86.80
2042;DHT22;1026;51.460;7.252;2022-09-20T02:46:08;12.20;86.80
2042;DHT22;1026;51.460;7.252;2022-09-20T02:54:11;12.20;86.90
2042;DHT22;1026;51.460;7.252;2022-09-20T02:56:53;12.20;86.80
2042;DHT22;1026;51.460;7.252;2022-09-20T02:59:41;12.20;86.90
2042;DHT22;1026;51.460;7.252;2022-09-20T03:02:29;12.20;86.90
2042;DHT22;1026;51.460;7.252;2022-09-20T03:10:39;12.10;86.70
2042;DHT22;1026;51.460;7.252;2022-09-20T03:15:56;12.10;86.80
2042;DHT22;1026;51.460;7.252;2022-09-20T03:21:50;12.10;86.80
2042;DHT22;1026;51.460;7.252;2022-09-20T03:26:49;12.10;86.80
2042;DHT22;1026;51.460;7.252;2022-09-20T03:29:41;12.10;86.80
2042;DHT22;1026;51.460;7.252;2022-09-20T03:42:40;12.00;86.60
2042;DHT22;1026;51.460;7.252;2022-09-20T03:45:36;12.10;86.80
2042;DHT22;1026;51.460;7.252;2022-09-20T03:51:54;12.00;86.70
2042;DHT22;1026;51.460;7.252;2022-09-20T03:57:17;11.90;86.60
2042;DHT22;1026;51.460;7.252;2022-09-20T04:00:07;12.00;86.70
2042;DHT22;1026;51.460;7.252;2022-09-20T04:05:38;12.00;86.80
2042;DHT22;1026;51.460;7.252;2022-09-20T04:11:24;12.00;86.80
2042;DHT22;1026;51.460;7.252;2022-09-20T04:16:51;11.90;86.60
2042;DHT22;1026;51.460;7.252;2022-09-20T04:19:32;12.00;86.80
2042;DHT22;1026;51.460;7.252;2022-09-20T04:22:00;11.90;86.60
2042;DHT22;1026;51.460;7.252;2022-09-20T04:30:17;11.90;86.70
2042;DHT22;1026;51.460;7.252;2022-09-20T04:38:36;11.90;86.70
2042;DHT22;1026;51.460;7.252;2022-09-20T04:46:32;11.90;86.90
2042;DHT22;1026;51.460;7.252;2022-09-20T04:50:22;11.80;86.70
2042;DHT22;1026;51.460;7.252;2022-09-20T04:52:24;11.80;86.70
2042;DHT22;1026;51.460;7.252;2022-09-20T05:17:05;11.80;86.70
2042;DHT22;1026;51.460;7.252;2022-09-20T05:19:38;11.80;86.80
2042;DHT22;1026;51.460;7.252;2022-09-20T05:41:17;11.80;86.80
2042;DHT22;1026;51.460;7.252;2022-09-20T05:44:00;11.80;86.90
2042;DHT22;1026;51.460;7.252;2022-09-20T05:49:51;11.80;86.80
2042;DHT22;1026;51.460;7.252;2022-09-20T06:00:31;11.90;86.70
2042;DHT22;1026;51.460;7.252;2022-09-20T06:03:28;11.80;86.60
2042;DHT22;1026;51.460;7.252;2022-09-20T06:19:40;11.80;86.70
2042;DHT22;1026;51.460;7.252;2022-09-20T06:22:30;11.70;86.70
2042;DHT22;1026;51.460;7.252;2022-09-20T06:25:17;11.80;86.80
2042;DHT22;1026;51.460;7.252;2022-09-20T06:30:52;11.80;86.70
2042;DHT22;1026;51.460;7.252;2022-09-20T06:33:19;11.80;86.90
2042;DHT22;1026;51.460;7.252;2022-09-20T06:35:55;11.80;86.80
2042;DHT22;1026;51.460;7.252;2022-09-20T06:38:47;11.80;86.80
2042;DHT22;1026;51.460;7.252;2022-09-20T06:41:33;11.80;86.90
2042;DHT22;1026;51.460;7.252;2022-09-20T06:44:01;11.70;86.80
2042;DHT22;1026;51.460;7.252;2022-09-20T06:46:30;11.80;86.80
2042;DHT22;1026;51.460;7.252;2022-09-20T06:48:56;11.80;86.80
2042;DHT22;1026;51.460;7.252;2022-09-20T06:51:24;11.70;86.70
2042;DHT22;1026;51.460;7.252;2022-09-20T06:53:50;11.80;86.80
2042;DHT22;1026;51.460;7.252;2022-09-20T06:56:20;11.70;86.70
2042;DHT22;1026;51.460;7.252;2022-09-20T06:58:47;11.80;86.80
2042;DHT22;1026;51.460;7.252;2022-09-20T07:01:13;11.80;86.70
2042;DHT22;1026;51.460;7.252;2022-09-20T07:03:40;11.80;86.80
2042;DHT22;1026;51.460;7.252;2022-09-20T07:06:06;11.80;86.90
2042;DHT22;1026;51.460;7.252;2022-09-20T07:08:31;11.80;86.80
2042;DHT22;1026;51.460;7.252;2022-09-20T07:11:03;11.90;86.90
2042;DHT22;1026;51.460;7.252;2022-09-20T07:13:28;11.80;86.90
2042;DHT22;1026;51.460;7.252;2022-09-20T07:16:03;11.90;86.90
2042;DHT22;1026;51.460;7.252;2022-09-20T07:18:29;11.90;86.90
2042;DHT22;1026;51.460;7.252;2022-09-20T07:20:56;11.80;86.80
2042;DHT22;1026;51.460;7.252;2022-09-20T07:23:25;11.80;86.90
2042;DHT22;1026;51.460;7.252;2022-09-20T07:25:50;11.90;86.90
2042;DHT22;1026;51.460;7.252;2022-09-20T07:28:16;11.90;86.90
2042;DHT22;1026;51.460;7.252;2022-09-20T07:30:45;11.90;86.90
2042;DHT22;1026;51.460;7.252;2022-09-20T07:33:11;11.90;86.90
2042;DHT22;1026;51.460;7.252;2022-09-20T07:35:41;11.90;86.90
2042;DHT22;1026;51.460;7.252;2022-09-20T07:38:07;11.90;86.90
2042;DHT22;1026;51.460;7.252;2022-09-20T07:40:33;11.90;86.90
2042;DHT22;1026;51.460;7.252;2022-09-20T07:42:58;11.80;86.90
2042;DHT22;1026;51.460;7.252;2022-09-20T07:45:24;11.90;86.90
2042;DHT22;1026;51.460;7.252;2022-09-20T07:47:50;11.90;86.90
2042;DHT22;1026;51.460;7.252;2022-09-20T07:50:16;11.90;86.90
2042;DHT22;1026;51.460;7.252;2022-09-20T07:52:43;11.80;86.80
2042;DHT22;1026;51.460;7.252;2022-09-20T07:55:08;11.80;86.80
2042;DHT22;1026;51.460;7.252;2022-09-20T07:57:35;11.90;86.90
2042;DHT22;1026;51.460;7.252;2022-09-20T08:00:04;11.90;86.90
2042;DHT22;1026;51.460;7.252;2022-09-20T08:02:30;11.90;86.90
2042;DHT22;1026;51.460;7.252;2022-09-20T08:04:55;11.90;86.90
2042;DHT22;1026;51.460;7.252;2022-09-20T08:07:21;11.90;87.00
2042;DHT22;1026;51.460;7.252;2022-09-20T08:09:47;11.90;86.90
2042;DHT22;1026;51.460;7.252;2022-09-20T08:12:12;11.90;86.90
2042;DHT22;1026;51.460;7.252;2022-09-20T08:14:38;12.00;87.80
2042;DHT22;1026;51.460;7.252;2022-09-20T08:17:05;12.00;87.10
2042;DHT22;1026;51.460;7.252;2022-09-20T08:19:31;11.80;86.90
2042;DHT22;1026;51.460;7.252;2022-09-20T08:21:56;12.00;87.00
2042;DHT22;1026;51.460;7.252;2022-09-20T08:24:22;11.80;86.90
2042;DHT22;1026;51.460;7.252;2022-09-20T08:26:50;12.00;87.10
2042;DHT22;1026;51.460;7.252;2022-09-20T08:29:16;12.00;87.00
2042;DHT22;1026;51.460;7.252;2022-09-20T08:31:42;12.00;87.00
2042;DHT22;1026;51.460;7.252;2022-09-20T08:34:10;12.00;87.00
2042;DHT22;1026;51.460;7.252;2022-09-20T08:36:39;12.00;87.10
2042;DHT22;1026;51.460;7.252;2022-09-20T08:39:06;12.00;87.00
2042;DHT22;1026;51.460;7.252;2022-09-20T08:41:37;12.00;87.10
2042;DHT22;1026;51.460;7.252;2022-09-20T08:46:58;12.10;87.30
2042;DHT22;1026;51.460;7.252;2022-09-20T08:49:27;12.10;87.30
2042;DHT22;1026;51.460;7.252;2022-09-20T08:51:55;11.90;86.90
2042;DHT22;1026;51.460;7.252;2022-09-20T08:54:23;12.10;87.20
2042;DHT22;1026;51.460;7.252;2022-09-20T08:56:50;12.10;87.30
2042;DHT22;1026;51.460;7.252;2022-09-20T08:59:19;12.10;87.10
2042;DHT22;1026;51.460;7.252;2022-09-20T09:01:46;12.10;87.20
2042;DHT22;1026;51.460;7.252;2022-09-20T09:04:18;12.10;87.20
2042;DHT22;1026;51.460;7.252;2022-09-20T09:06:45;12.10;87.20
2042;DHT22;1026;51.460;7.252;2022-09-20T09:09:23;12.20;87.30
2042;DHT22;1026;51.460;7.252;2022-09-20T09:11:51;12.20;87.30
2042;DHT22;1026;51.460;7.252;2022-09-20T09:14:33;12.20;87.20
2042;DHT22;1026;51.460;7.252;2022-09-20T09:17:17;12.20;87.20
2042;DHT22;1026;51.460;7.252;2022-09-20T09:19:47;12.20;87.10
2042;DHT22;1026;51.460;7.252;2022-09-20T09:22:21;12.20;87.10
2042;DHT22;1026;51.460;7.252;2022-09-20T09:28:13;12.20;87.00
2042;DHT22;1026;51.460;7.252;2022-09-20T09:30:44;12.30;87.10
2042;DHT22;1026;51.460;7.252;2022-09-20T09:38:41;12.30;87.00
2042;DHT22;1026;51.460;7.252;2022-09-20T09:41:28;12.40;87.10
2042;DHT22;1026;51.460;7.252;2022-09-20T09:44:05;12.40;86.80
2042;DHT22;1026;51.460;7.252;2022-09-20T09:46:37;12.40;86.80
2042;DHT22;1026;51.460;7.252;2022-09-20T09:49:06;12.40;86.80
2042;DHT22;1026;51.460;7.252;2022-09-20T09:51:34;12.40;86.80
2042;DHT22;1026;51.460;7.252;2022-09-20T09:54:01;12.40;86.80
2042;DHT22;1026;51.460;7.252;2022-09-20T10:07:57;12.50;86.70
2042;DHT22;1026;51.460;7.252;2022-09-20T10:13:29;12.50;86.60
2042;DHT22;1026;51.460;7.252;2022-09-20T10:23:58;12.60;86.60
2042;DHT22;1026;51.460;7.252;2022-09-20T10:26:38;12.60;86.60
2042;DHT22;1026;51.460;7.252;2022-09-20T10:29:12;12.60;86.60
2042;DHT22;1026;51.460;7.252;2022-09-20T10:32:00;12.60;86.60
2042;DHT22;1026;51.460;7.252;2022-09-20T10:40:36;12.70;86.50
2042;DHT22;1026;51.460;7.252;2022-09-20T10:43:29;12.70;86.80
2042;DHT22;1026;51.460;7.252;2022-09-20T10:48:55;12.70;86.60
2042;DHT22;1026;51.460;7.252;2022-09-20T10:52:30;12.70;86.50
2042;DHT22;1026;51.460;7.252;2022-09-20T10:59:50;12.70;87.20
2042;DHT22;1026;51.460;7.252;2022-09-20T11:05:40;12.80;86.40
2042;DHT22;1026;51.460;7.252;2022-09-20T11:08:19;12.80;86.30
2042;DHT22;1026;51.460;7.252;2022-09-20T11:10:52;12.80;86.30
2042;DHT22;1026;51.460;7.252;2022-09-20T11:13:26;12.80;86.20
2042;DHT22;1026;51.460;7.252;2022-09-20T11:16:03;12.80;86.20
2042;DHT22;1026;51.460;7.252;2022-09-20T11:18:51;12.80;86.20
2042;DHT22;1026;51.460;7.252;2022-09-20T11:21:34;12.90;86.20
2042;DHT22;1026;51.460;7.252;2022-09-20T11:24:31;12.90;86.30
2042;DHT22;1026;51.460;7.252;2022-09-20T11:26:57;12.90;87.00
2042;DHT22;1026;51.460;7.252;2022-09-20T11:37:14;13.00;86.10
2042;DHT22;1026;51.460;7.252;2022-09-20T11:39:43;13.00;86.20
2042;DHT22;1026;51.460;7.252;2022-09-20T11:42:18;13.00;86.10
2042;DHT22;1026;51.460;7.252;2022-09-20T11:44:45;12.90;86.10
2042;DHT22;1026;51.460;7.252;2022-09-20T11:47:13;13.00;86.50
2042;DHT22;1026;51.460;7.252;2022-09-20T11:55:38;13.10;86.10
2042;DHT22;1026;51.460;7.252;2022-09-20T11:58:11;13.10;86.70
2042;DHT22;1026;51.460;7.252;2022-09-20T12:00:40;13.10;85.90
2042;DHT22;1026;51.460;7.252;2022-09-20T12:03:27;13.10;85.70
2042;DHT22;1026;51.460;7.252;2022-09-20T12:06:04;13.20;86.00
2042;DHT22;1026;51.460;7.252;2022-09-20T12:08:35;13.10;86.00
2042;DHT22;1026;51.460;7.252;2022-09-20T12:13:33;13.20;86.10
2042;DHT22;1026;51.460;7.252;2022-09-20T12:23:45;13.20;85.70
2042;DHT22;1026;51.460;7.252;2022-09-20T12:28:38;13.10;85.60
2042;DHT22;1026;51.460;7.252;2022-09-20T12:36:41;13.30;85.80
2042;DHT22;1026;51.460;7.252;2022-09-20T12:39:14;13.20;85.50
2042;DHT22;1026;51.460;7.252;2022-09-20T12:44:35;13.30;85.70
2042;DHT22;1026;51.460;7.252;2022-09-20T12:52:47;13.30;85.90
2042;DHT22;1026;51.460;7.252;2022-09-20T13:00:49;13.40;85.80
2042;DHT22;1026;51.460;7.252;2022-09-20T13:03:25;13.40;86.30
2042;DHT22;1026;51.460;7.252;2022-09-20T13:11:20;13.40;86.50
2042;DHT22;1026;51.460;7.252;2022-09-20T13:22:21;13.40;85.80
2042;DHT22;1026;51.460;7.252;2022-09-20T13:24:51;13.50;86.60
2042;DHT22;1026;51.460;7.252;2022-09-20T13:27:24;13.50;86.50
2042;DHT22;1026;51.460;7.252;2022-09-20T13:29:51;13.50;86.20
2042;DHT22;1026;51.460;7.252;2022-09-20T13:32:33;13.50;86.30
2042;DHT22;1026;51.460;7.252;2022-09-20T13:35:19;13.60;86.10
2042;DHT22;1026;51.460;7.252;2022-09-20T13:37:56;13.60;85.60
2042;DHT22;1026;51.460;7.252;2022-09-20T13:40:30;13.60;86.30
2042;DHT22;1026;51.460;7.252;2022-09-20T13:43:30;13.60;86.60
2042;DHT22;1026;51.460;7.252;2022-09-20T13:45:59;13.60;85.50
2042;DHT22;1026;51.460;7.252;2022-09-20T13:48:30;13.60;85.00
2042;DHT22;1026;51.460;7.252;2022-09-20T13:50:57;13.60;84.90
2042;DHT22;1026;51.460;7.252;2022-09-20T13:53:25;13.60;85.00
2042;DHT22;1026;51.460;7.252;2022-09-20T13:55:52;13.50;84.60
2042;DHT22;1026;51.460;7.252;2022-09-20T13:58:25;13.60;84.40
2042;DHT22;1026;51.460;7.252;2022-09-20T14:01:22;13.60;84.80
2042;DHT22;1026;51.460;7.252;2022-09-20T14:03:48;13.60;84.90
2042;DHT22;1026;51.460;7.252;2022-09-20T14:06:14;13.60;84.80
2042;DHT22;1026;51.460;7.252;2022-09-20T14:08:47;13.60;85.40
2042;DHT22;1026;51.460;7.252;2022-09-20T14:11:29;13.60;84.70
2042;DHT22;1026;51.460;7.252;2022-09-20T14:14:04;13.60;84.90
2042;DHT22;1026;51.460;7.252;2022-09-20T14:16:32;13.70;84.90
2042;DHT22;1026;51.460;7.252;2022-09-20T14:18:59;13.60;84.70
2042;DHT22;1026;51.460;7.252;2022-09-20T14:21:27;13.70;84.90
2042;DHT22;1026;51.460;7.252;2022-09-20T14:24:03;13.70;84.80
2042;DHT22;1026;51.460;7.252;2022-09-20T14:26:35;13.60;84.60
2042;DHT22;1026;51.460;7.252;2022-09-20T14:34:52;13.70;84.80
2042;DHT22;1026;51.460;7.252;2022-09-20T14:37:27;13.70;84.70
2042;DHT22;1026;51.460;7.252;2022-09-20T14:39:59;13.70;85.50
2042;DHT22;1026;51.460;7.252;2022-09-20T14:42:34;13.70;84.40
2042;DHT22;1026;51.460;7.252;2022-09-20T14:45:01;13.60;84.70
2042;DHT22;1026;51.460;7.252;2022-09-20T14:47:36;13.70;84.60
2042;DHT22;1026;51.460;7.252;2022-09-20T14:50:17;13.70;84.60
2042;DHT22;1026;51.460;7.252;2022-09-20T14:52:46;13.70;84.50
2042;DHT22;1026;51.460;7.252;2022-09-20T14:55:25;13.70;84.60
2042;DHT22;1026;51.460;7.252;2022-09-20T14:57:58;13.70;84.60
2042;DHT22;1026;51.460;7.252;2022-09-20T15:00:24;13.70;84.30
2042;DHT22;1026;51.460;7.252;2022-09-20T15:02:49;13.70;84.50
2042;DHT22;1026;51.460;7.252;2022-09-20T15:05:22;13.70;84.40
2042;DHT22;1026;51.460;7.252;2022-09-20T15:07:52;13.70;84.60
2042;DHT22;1026;51.460;7.252;2022-09-20T15:10:18;13.70;84.40
2042;DHT22;1026;51.460;7.252;2022-09-20T15:12:44;13.80;84.70
2042;DHT22;1026;51.460;7.252;2022-09-20T15:15:13;13.60;84.50
2042;DHT22;1026;51.460;7.252;2022-09-20T15:17:40;13.80;84.70
2042;DHT22;1026;51.460;7.252;2022-09-20T15:20:12;13.70;84.60
2042;DHT22;1026;51.460;7.252;2022-09-20T15:22:40;13.80;84.70
2042;DHT22;1026;51.460;7.252;2022-09-20T15:25:07;13.70;84.50
2042;DHT22;1026;51.460;7.252;2022-09-20T15:27:44;13.80;84.60
2042;DHT22;1026;51.460;7.252;2022-09-20T15:30:13;13.70;84.50
2042;DHT22;1026;51.460;7.252;2022-09-20T15:32:40;13.80;84.60
2042;DHT22;1026;51.460;7.252;2022-09-20T15:35:06;13.80;84.50
2042;DHT22;1026;51.460;7.252;2022-09-20T15:37:31;13.80;84.60
2042;DHT22;1026;51.460;7.252;2022-09-20T15:39:57;13.80;84.40
2042;DHT22;1026;51.460;7.252;2022-09-20T15:42:23;13.80;84.50
2042;DHT22;1026;51.460;7.252;2022-09-20T15:44:49;13.80;84.40
2042;DHT22;1026;51.460;7.252;2022-09-20T15:47:16;13.60;84.30
2042;DHT22;1026;51.460;7.252;2022-09-20T15:49:43;13.80;84.50
2042;DHT22;1026;51.460;7.252;2022-09-20T15:52:12;13.70;84.40
2042;DHT22;1026;51.460;7.252;2022-09-20T15:54:38;13.60;84.20
2042;DHT22;1026;51.460;7.252;2022-09-20T15:57:04;13.80;84.40
2042;DHT22;1026;51.460;7.252;2022-09-20T15:59:29;13.80;84.40
2042;DHT22;1026;51.460;7.252;2022-09-20T16:01:57;13.90;84.40
2042;DHT22;1026;51.460;7.252;2022-09-20T16:04:24;13.70;84.20
2042;DHT22;1026;51.460;7.252;2022-09-20T16:06:52;13.80;84.50
2042;DHT22;1026;51.460;7.252;2022-09-20T16:09:26;13.60;84.40
2042;DHT22;1026;51.460;7.252;2022-09-20T16:11:54;13.90;84.60
2042;DHT22;1026;51.460;7.252;2022-09-20T16:14:23;13.80;84.40
2042;DHT22;1026;51.460;7.252;2022-09-20T16:16:49;13.80;84.40
2042;DHT22;1026;51.460;7.252;2022-09-20T16:19:14;13.60;84.40
2042;DHT22;1026;51.460;7.252;2022-09-20T16:21:43;13.80;84.60
2042;DHT22;1026;51.460;7.252;2022-09-20T16:24:11;13.80;84.70
2042;DHT22;1026;51.460;7.252;2022-09-20T16:26:38;13.80;84.60
2042;DHT22;1026;51.460;7.252;2022-09-20T16:29:04;13.80;84.60
2042;DHT22;1026;51.460;7.252;2022-09-20T16:31:35;13.70;83.90
2042;DHT22;1026;51.460;7.252;2022-09-20T16:34:15;13.80;84.10
2042;DHT22;1026;51.460;7.252;2022-09-20T16:36:43;13.80;84.00
2042;DHT22;1026;51.460;7.252;2022-09-20T16:39:10;13.80;84.70
2042;DHT22;1026;51.460;7.252;2022-09-20T16:41:36;13.80;84.70
2042;DHT22;1026;51.460;7.252;2022-09-20T16:44:08;13.80;84.60
2042;DHT22;1026;51.460;7.252;2022-09-20T16:46:37;13.80;84.70
2042;DHT22;1026;51.460;7.252;2022-09-20T16:49:06;13.80;84.70
2042;DHT22;1026;51.460;7.252;2022-09-20T16:51:35;13.80;84.90
2042;DHT22;1026;51.460;7.252;2022-09-20T16:54:03;13.80;84.90
2042;DHT22;1026;51.460;7.252;2022-09-20T16:56:31;13.80;84.90
2042;DHT22;1026;51.460;7.252;2022-09-20T16:58:59;13.80;84.80
2042;DHT22;1026;51.460;7.252;2022-09-20T17:01:26;13.80;84.90
2042;DHT22;1026;51.460;7.252;2022-09-20T17:03:52;13.70;84.40
2042;DHT22;1026;51.460;7.252;2022-09-20T17:06:19;13.80;84.50
2042;DHT22;1026;51.460;7.252;2022-09-20T17:08:45;13.70;84.40
2042;DHT22;1026;51.460;7.252;2022-09-20T17:11:13;13.70;84.50
2042;DHT22;1026;51.460;7.252;2022-09-20T17:13:52;13.80;84.60
2042;DHT22;1026;51.460;7.252;2022-09-20T17:16:22;13.70;84.50
2042;DHT22;1026;51.460;7.252;2022-09-20T17:18:57;13.70;84.50
2042;DHT22;1026;51.460;7.252;2022-09-20T17:21:24;13.70;84.50
2042;DHT22;1026;51.460;7.252;2022-09-20T17:23:52;13.70;84.60
2042;DHT22;1026;51.460;7.252;2022-09-20T17:26:25;13.60;84.50
2042;DHT22;1026;51.460;7.252;2022-09-20T17:28:53;13.70;84.70
2042;DHT22;1026;51.460;7.252;2022-09-20T17:31:22;13.70;84.70
2042;DHT22;1026;51.460;7.252;2022-09-20T17:33:49;13.70;84.80
2042;DHT22;1026;51.460;7.252;2022-09-20T17:36:17;13.70;84.80
2042;DHT22;1026;51.460;7.252;2022-09-20T17:38:44;13.70;84.80
2042;DHT22;1026;51.460;7.252;2022-09-20T17:43:39;13.70;84.90
2042;DHT22;1026;51.460;7.252;2022-09-20T17:46:14;13.60;84.80
2042;DHT22;1026;51.460;7.252;2022-09-20T17:48:59;13.70;84.90
2042;DHT22;1026;51.460;7.252;2022-09-20T17:51:29;13.70;85.00
2042;DHT22;1026;51.460;7.252;2022-09-20T17:53:55;13.70;85.00
2042;DHT22;1026;51.460;7.252;2022-09-20T17:56:22;13.70;85.00
2042;DHT22;1026;51.460;7.252;2022-09-20T17:58:49;13.60;84.90
2042;DHT22;1026;51.460;7.252;2022-09-20T18:01:16;13.70;85.00
2042;DHT22;1026;51.460;7.252;2022-09-20T18:03:44;13.60;85.00
2042;DHT22;1026;51.460;7.252;2022-09-20T18:08:37;13.70;85.10
2042;DHT22;1026;51.460;7.252;2022-09-20T18:11:03;13.60;85.00
2042;DHT22;1026;51.460;7.252;2022-09-20T18:13:29;13.50;84.90
2042;DHT22;1026;51.460;7.252;2022-09-20T18:15:55;13.60;85.00
2042;DHT22;1026;51.460;7.252;2022-09-20T18:18:21;13.60;85.00
2042;DHT22;1026;51.460;7.252;2022-09-20T18:20:47;13.60;85.00
2042;DHT22;1026;51.460;7.252;2022-09-20T18:23:13;13.60;85.00
2042;DHT22;1026;51.460;7.252;2022-09-20T18:25:38;13.60;85.00
2042;DHT22;1026;51.460;7.252;2022-09-20T18:28:19;13.60;85.10
2042;DHT22;1026;51.460;7.252;2022-09-20T18:30:58;13.60;85.10
2042;DHT22;1026;51.460;7.252;2022-09-20T18:33:24;13.50;85.10
2042;DHT22;1026;51.460;7.252;2022-09-20T18:35:50;13.60;85.20
2042;DHT22;1026;51.460;7.252;2022-09-20T18:38:16;13.50;85.20
2042;DHT22;1026;51.460;7.252;2022-09-20T18:40:43;13.60;85.30
2042;DHT22;1026;51.460;7.252;2022-09-20T18:43:18;13.60;85.30
2042;DHT22;1026;51.460;7.252;2022-09-20T18:45:50;13.50;85.20
2042;DHT22;1026;51.460;7.252;2022-09-20T18:48:17;13.50;85.20
2042;DHT22;1026;51.460;7.252;2022-09-20T18:50:55;13.50;85.30
2042;DHT22;1026;51.460;7.252;2022-09-20T18:53:22;13.50;85.30
2042;DHT22;1026;51.460;7.252;2022-09-20T18:55:49;13.50;85.30
2042;DHT22;1026;51.460;7.252;2022-09-20T18:58:19;13.50;85.40
2042;DHT22;1026;51.460;7.252;2022-09-20T19:00:50;13.50;85.30
2042;DHT22;1026;51.460;7.252;2022-09-20T19:03:25;13.50;85.40
2042;DHT22;1026;51.460;7.252;2022-09-20T19:05:56;13.40;85.30
2042;DHT22;1026;51.460;7.252;2022-09-20T19:08:27;13.50;85.50
2042;DHT22;1026;51.460;7.252;2022-09-20T19:11:03;13.40;85.40
2042;DHT22;1026;51.460;7.252;2022-09-20T19:13:41;13.30;85.30
2042;DHT22;1026;51.460;7.252;2022-09-20T19:16:15;13.30;85.30
2042;DHT22;1026;51.460;7.252;2022-09-20T19:24:30;13.40;85.50
2042;DHT22;1026;51.460;7.252;2022-09-20T19:26:58;13.40;85.50
2042;DHT22;1026;51.460;7.252;2022-09-20T19:29:25;13.40;85.50
2042;DHT22;1026;51.460;7.252;2022-09-20T19:31:58;13.40;85.50
2042;DHT22;1026;51.460;7.252;2022-09-20T19:34:32;13.40;85.60
2042;DHT22;1026;51.460;7.252;2022-09-20T19:45:25;13.40;85.70
2042;DHT22;1026;51.460;7.252;2022-09-20T19:50:51;13.30;85.60
2042;DHT22;1026;51.460;7.252;2022-09-20T19:53:19;13.30;85.70
2042;DHT22;1026;51.460;7.252;2022-09-20T19:55:51;13.30;85.70
2042;DHT22;1026;51.460;7.252;2022-09-20T19:58:17;13.30;85.70
2042;DHT22;1026;51.460;7.252;2022-09-20T20:00:45;13.30;85.70
2042;DHT22;1026;51.460;7.252;2022-09-20T20:03:12;13.30;85.80
2042;DHT22;1026;51.460;7.252;2022-09-20T20:05:45;13.20;85.70
2042;DHT22;1026;51.460;7.252;2022-09-20T20:08:16;13.30;85.80
2042;DHT22;1026;51.460;7.252;2022-09-20T20:11:03;13.30;85.80
2042;DHT22;1026;51.460;7.252;2022-09-20T20:13:54;13.30;85.90
2042;DHT22;1026;51.460;7.252;2022-09-20T20:22:46;13.20;85.80
2042;DHT22;1026;51.460;7.252;2022-09-20T20:25:25;13.20;85.80
2042;DHT22;1026;51.460;7.252;2022-09-20T20:27:53;13.20;85.80
2042;DHT22;1026;51.460;7.252;2022-09-20T20:30:18;13.10;85.80
2042;DHT22;1026;51.460;7.252;2022-09-20T20:32:44;13.10;85.80
2042;DHT22;1026;51.460;7.252;2022-09-20T20:35:11;13.20;85.90
2042;DHT22;1026;51.460;7.252;2022-09-20T20:37:38;13.20;85.90
2042;DHT22;1026;51.460;7.252;2022-09-20T20:40:04;13.20;85.90
2042;DHT22;1026;51.460;7.252;2022-09-20T20:42:31;13.10;85.80
2042;DHT22;1026;51.460;7.252;2022-09-20T20:44:56;13.10;85.80
2042;DHT22;1026;51.460;7.252;2022-09-20T20:47:23;13.10;85.80
2042;DHT22;1026;51.460;7.252;2022-09-20T20:49:48;13.00;85.80
2042;DHT22;1026;51.460;7.252;2022-09-20T20:52:17;13.10;85.90
2042;DHT22;1026;51.460;7.252;2022-09-20T20:54:43;13.10;85.90
2042;DHT22;1026;51.460;7.252;2022-09-20T20:57:09;13.00;85.80
2042;DHT22;1026;51.460;7.252;2022-09-20T20:59:35;13.10;85.80
2042;DHT22;1026;51.460;7.252;2022-09-20T21:02:00;13.10;85.80
2042;DHT22;1026;51.460;7.252;2022-09-20T21:04:26;13.10;85.90
2042;DHT22;1026;51.460;7.252;2022-09-20T21:06:53;13.10;85.90
2042;DHT22;1026;51.460;7.252;2022-09-20T21:09:18;13.10;85.90
2042;DHT22;1026;51.460;7.252;2022-09-20T21:11:44;13.10;85.90
2042;DHT22;1026;51.460;7.252;2022-09-20T21:14:12;12.90;85.70
2042;DHT22;1026;51.460;7.252;2022-09-20T21:16:41;13.00;85.80
2042;DHT22;1026;51.460;7.252;2022-09-20T21:19:09;13.00;85.80
2042;DHT22;1026;51.460;7.252;2022-09-20T21:21:37;12.90;85.70
2042;DHT22;1026;51.460;7.252;2022-09-20T21:24:06;13.00;85.80
2042;DHT22;1026;51.460;7.252;2022-09-20T21:26:33;13.00;85.80
2042;DHT22;1026;51.460;7.252;2022-09-20T21:29:02;13.00;85.80
2042;DHT22;1026;51.460;7.252;2022-09-20T21:31:30;13.00;85.80
2042;DHT22;1026;51.460;7.252;2022-09-20T21:34:15;13.00;85.80
2042;DHT22;1026;51.460;7.252;2022-09-20T21:36:41;13.00;85.80
2042;DHT22;1026;51.460;7.252;2022-09-20T21:39:09;13.00;85.80
2042;DHT22;1026;51.460;7.252;2022-09-20T21:41:36;12.90;85.80
2042;DHT22;1026;51.460;7.252;2022-09-20T21:44:03;12.90;85.80
2042;DHT22;1026;51.460;7.252;2022-09-20T21:46:34;12.80;85.70
2042;DHT22;1026;51.460;7.252;2022-09-20T21:49:03;12.90;85.80
2042;DHT22;1026;51.460;7.252;2022-09-20T21:51:30;12.90;85.80
2042;DHT22;1026;51.460;7.252;2022-09-20T21:53:57;12.90;85.80
2042;DHT22;1026;51.460;7.252;2022-09-20T21:56:26;12.90;85.80
2042;DHT22;1026;51.460;7.252;2022-09-20T21:58:53;12.90;85.80
2042;DHT22;1026;51.460;7.252;2022-09-20T22:01:21;12.90;85.80
2042;DHT22;1026;51.460;7.252;2022-09-20T22:03:49;12.80;85.70
2042;DHT22;1026;51.460;7.252;2022-09-20T22:06:18;12.80;85.70